»·PEaware :: NKS469 KDFW-KLAS

NKS469 :: KDFW-KLAS

FLIGHT INFORMATION

Flight Status: Arrived
Operator:
Spirit Airlines
More flights by this operator :: More flights under this callsign
Pilot: Justin U. (116)
Aircraft: AIRBUS A319
(A319)
More flights by this aircraft type
Origin: KDFW Dallas-Ft Worth Intl
United States
Destination: KLAS McCarran Intl
United States
More flights between these airports :: More routes between these airports
Route: +CEOLA5 TXO J72 PGS TYSSN3
File this flight plan on PilotEdge
Remarks: SEL / ALFK / V /
Altitude:
(Current/Filed)
36,000ft
Speed:
(Current/Filed)
446kts
Departed: 06-May-13 07:33 AM
Arrived: 06-May-13 09:57 AM
Distance/Time
Traveled:
915nm/2:24
Distance/Time
To Go:
Arrived

Flight Plot

Page will automatically refresh every two minutes.

Flight plan parsing failed; only flown route is shown


Map Options




Map Legend


Flown Route
Filed Route
Departure Airport
Arrival Airport
Navaid (VOR, NDB)
Fix

Horizontal Profiles

Position Reports

Time Latitude Longitude Heading Altitude Ground
Speed
06-May-13 07:32 32.866313 -97.763163 270 19281ft 351kts
06-May-13 07:33 32.865203 -97.882070 270 22068ft 363kts
06-May-13 07:34 32.864162 -98.003955 270 24146ft 375kts
06-May-13 07:35 32.862963 -98.129831 270 26019ft 387kts
06-May-13 07:36 32.861625 -98.256784 269 28022ft 381kts
06-May-13 07:37 32.860153 -98.383709 268 28964ft 387kts
06-May-13 07:38 32.858531 -98.513445 268 29894ft 395kts
06-May-13 07:39 32.856722 -98.646209 267 30740ft 405kts
06-May-13 07:40 32.854761 -98.779706 268 32144ft 402kts
06-May-13 07:41 32.852683 -98.911298 268 33495ft 397kts
06-May-13 07:42 32.850482 -99.042336 268 34751ft 394kts
06-May-13 07:43 32.848170 -99.172076 268 36098ft 386kts
06-May-13 07:44 32.845778 -99.298663 268 36232ft 383kts
06-May-13 07:45 32.843268 -99.425079 268 36226ft 383kts
06-May-13 07:46 32.840651 -99.550362 267 36202ft 376kts
06-May-13 07:47 32.864967 -99.669103 293 36200ft 382kts
06-May-13 07:48 32.910492 -99.783457 290 36195ft 383kts
06-May-13 07:49 32.954728 -99.898571 290 36204ft 383kts
06-May-13 07:50 32.998852 -100.013794 290 36204ft 382kts
06-May-13 07:51 33.042786 -100.128912 290 36204ft 382kts
06-May-13 07:52 33.086577 -100.244048 290 36204ft 382kts
06-May-13 07:53 33.130474 -100.359849 289 36203ft 382kts
06-May-13 07:54 33.174148 -100.475464 289 36194ft 383kts
06-May-13 07:55 33.217755 -100.591325 289 36193ft 383kts
06-May-13 07:56 33.261377 -100.707596 289 36193ft 384kts
06-May-13 07:57 33.304893 -100.824005 289 36193ft 384kts
06-May-13 07:58 33.348426 -100.940857 289 36193ft 384kts
06-May-13 07:59 33.391782 -101.057651 289 36193ft 384kts
06-May-13 08:00 33.434973 -101.174410 289 36193ft 384kts
06-May-13 08:01 33.478150 -101.291548 288 36193ft 385kts
06-May-13 08:02 33.521448 -101.409427 288 36193ft 386kts
06-May-13 08:03 33.564905 -101.528170 288 36193ft 390kts
06-May-13 08:04 33.609035 -101.649197 288 36193ft 391kts
06-May-13 08:05 33.653272 -101.770979 289 36173ft 402kts
06-May-13 08:06 33.697113 -101.894286 288 36172ft 402kts
06-May-13 08:07 33.773578 -101.993686 311 36173ft 417kts
06-May-13 08:08 33.856112 -102.088943 309 36191ft 407kts
06-May-13 08:09 33.937495 -102.183606 309 36192ft 407kts
06-May-13 08:10 34.019111 -102.278805 309 36192ft 407kts
06-May-13 08:11 34.100434 -102.373929 309 36193ft 408kts
06-May-13 08:12 34.181949 -102.469548 309 36193ft 409kts
06-May-13 08:13 34.263605 -102.565611 309 36192ft 410kts
06-May-13 08:14 34.345244 -102.661930 309 36202ft 410kts
06-May-13 08:15 34.427125 -102.758817 309 36193ft 414kts
06-May-13 08:16 34.501850 -102.864103 291 36192ft 409kts
06-May-13 08:17 34.521548 -102.996205 272 36191ft 397kts
06-May-13 08:18 34.539681 -103.128727 277 36191ft 398kts
06-May-13 08:19 34.559751 -103.260642 277 36192ft 398kts
06-May-13 08:20 34.579807 -103.393533 277 36192ft 402kts
06-May-13 08:21 34.599788 -103.526906 277 36193ft 402kts
06-May-13 08:22 34.619679 -103.660727 276 36202ft 403kts
06-May-13 08:23 34.639466 -103.794844 276 36213ft 404kts
06-May-13 08:24 34.659120 -103.929188 276 36204ft 406kts
06-May-13 08:25 34.678725 -104.064267 276 36203ft 407kts
06-May-13 08:26 34.698201 -104.199502 276 36199ft 407kts
06-May-13 08:27 34.717502 -104.334660 276 36176ft 403kts
06-May-13 08:28 34.736553 -104.469160 276 36164ft 403kts
06-May-13 08:29 34.755355 -104.603026 276 36161ft 402kts
06-May-13 08:30 34.773987 -104.736757 276 36150ft 400kts
06-May-13 08:31 34.792413 -104.870139 276 36144ft 400kts
06-May-13 08:32 34.810669 -105.003388 276 36144ft 399kts
06-May-13 08:33 34.828746 -105.136412 276 36135ft 399kts
06-May-13 08:34 34.846847 -105.270807 276 36142ft 401kts
06-May-13 08:35 34.864720 -105.404663 276 36143ft 401kts
06-May-13 08:36 34.882462 -105.538592 276 36155ft 403kts
06-May-13 08:38 34.900209 -105.673827 275 36183ft 406kts
06-May-13 08:39 34.917953 -105.810211 275 36193ft 409kts
06-May-13 08:40 34.935550 -105.946690 275 36163ft 404kts
06-May-13 08:41 34.952792 -106.081641 274 36157ft 403kts
06-May-13 08:42 34.969843 -106.216406 275 36159ft 403kts
06-May-13 08:43 34.986752 -106.351337 274 36152ft 403kts
06-May-13 08:44 35.003531 -106.486412 274 36138ft 402kts
06-May-13 08:45 35.020211 -106.622000 274 36149ft 406kts
06-May-13 08:46 35.036872 -106.758788 275 36134ft 408kts
06-May-13 08:47 35.060889 -106.893990 281 36133ft 409kts
06-May-13 08:48 35.090209 -107.028258 281 36152ft 410kts
06-May-13 08:49 35.119420 -107.162785 281 36153ft 410kts
06-May-13 08:50 35.148500 -107.297476 281 36171ft 412kts
06-May-13 08:51 35.177630 -107.433175 281 36208ft 412kts
06-May-13 08:52 35.206511 -107.568519 281 36213ft 412kts
06-May-13 08:53 35.235243 -107.703970 281 36213ft 412kts
06-May-13 08:54 35.263811 -107.839453 280 36213ft 412kts
06-May-13 08:55 35.292237 -107.975079 280 36213ft 412kts
06-May-13 08:56 35.320511 -108.110790 280 36213ft 412kts
06-May-13 08:57 35.348663 -108.246743 280 36213ft 412kts
06-May-13 08:58 35.376700 -108.382970 280 36210ft 412kts
06-May-13 08:59 35.404919 -108.520956 280 36203ft 420kts
06-May-13 09:00 35.433110 -108.659656 280 36203ft 420kts
06-May-13 09:01 35.461139 -108.798441 280 36203ft 420kts
06-May-13 09:02 35.479389 -108.938987 271 36203ft 417kts
06-May-13 09:03 35.486562 -109.081552 271 36195ft 417kts
06-May-13 09:03 35.492477 -109.202217 271 36193ft 417kts
06-May-13 09:04 35.499282 -109.344199 270 36193ft 417kts
06-May-13 09:05 35.505925 -109.486308 270 36193ft 417kts
06-May-13 09:06 35.512399 -109.628370 270 36193ft 417kts
06-May-13 09:07 35.518727 -109.770926 270 36193ft 417kts
06-May-13 09:08 35.524866 -109.913022 270 36193ft 417kts
06-May-13 09:09 35.530833 -110.054970 270 36164ft 414kts
06-May-13 09:10 35.536342 -110.195337 270 36123ft 412kts
06-May-13 09:11 35.541665 -110.335541 270 36123ft 412kts
06-May-13 09:12 35.546828 -110.475845 270 36123ft 412kts
06-May-13 09:13 35.551848 -110.616669 270 36123ft 412kts
06-May-13 09:14 35.556683 -110.756932 270 36123ft 412kts
06-May-13 09:15 35.561359 -110.897320 270 36123ft 412kts
06-May-13 09:16 35.565868 -111.037579 269 36123ft 412kts
06-May-13 09:17 35.570222 -111.177922 269 36151ft 411kts
06-May-13 09:18 35.574402 -111.318194 269 36183ft 411kts
06-May-13 09:19 35.578419 -111.458439 269 36183ft 411kts
06-May-13 09:20 35.582288 -111.599154 269 36183ft 411kts
06-May-13 09:21 35.585999 -111.740095 269 36144ft 414kts
06-May-13 09:22 35.591367 -111.881355 273 36143ft 415kts
06-May-13 09:23 35.596250 -112.023194 269 36142ft 416kts
06-May-13 09:24 35.599725 -112.165103 269 36143ft 416kts
06-May-13 09:25 35.603033 -112.307018 269 36143ft 416kts
06-May-13 09:26 35.606182 -112.449480 269 36138ft 416kts
06-May-13 09:27 35.609146 -112.591319 269 36133ft 416kts
06-May-13 09:28 35.611937 -112.732715 268 35993ft 408kts
06-May-13 09:29 35.614548 -112.873852 268 33535ft 425kts
06-May-13 09:30 35.616938 -113.010918 268 31615ft 384kts
06-May-13 09:31 35.619019 -113.138498 268 29322ft 360kts
06-May-13 09:32 35.620822 -113.256633 268 27227ft 334kts
06-May-13 09:33 35.622420 -113.368191 267 25318ft 321kts
06-May-13 09:35 35.624171 -113.498217 266 23081ft 324kts
06-May-13 09:35 35.631135 -113.588917 274 21586ft 319kts
06-May-13 09:36 35.646378 -113.695330 275 20018ft 314kts
06-May-13 09:37 35.661270 -113.800059 275 18410ft 306kts
06-May-13 09:38 35.675625 -113.901668 274 16844ft 298kts
06-May-13 09:39 35.689533 -114.000782 274 15389ft 291kts
06-May-13 09:40 35.703239 -114.099130 275 14062ft 296kts
06-May-13 09:41 35.716959 -114.198073 275 12691ft 291kts
06-May-13 09:42 35.729708 -114.290548 275 12074ft 295kts
06-May-13 09:43 35.753698 -114.382293 312 12065ft 295kts
06-May-13 09:44 35.827518 -114.423241 336 11392ft 284kts
06-May-13 09:45 35.901695 -114.457951 336 10443ft 296kts
06-May-13 09:46 35.977786 -114.493603 336 10084ft 290kts
06-May-13 09:47 36.041393 -114.547541 286 9741ft 283kts
06-May-13 09:48 36.058118 -114.640030 279 8886ft 273kts
06-May-13 09:49 36.071636 -114.731263 273 7967ft 268kts
06-May-13 09:50 36.074559 -114.820065 267 7423ft 253kts
06-May-13 09:51 36.074031 -114.909938 267 5939ft 263kts
06-May-13 09:52 36.075413 -114.991444 267 3632ft 229kts
06-May-13 09:53 36.074575 -115.051066 261 3330ft 142kts
06-May-13 09:54 36.073890 -115.096626 262 2640ft 129kts
06-May-13 09:55 36.073676 -115.138734 265 2193ft 93kts
06-May-13 09:56 36.074939 -115.150929 316 2192ft 42kts
06-May-13 09:57 36.082162 -115.154334 27 2192ft 0kts
06-May-13 09:58 36.082000 -115.150048 41 2192ft 24kts
06-May-13 09:59 36.083193 -115.150731 245 2192ft 0kts

Navigation Log

Ident Type
Flight plan parsing failed, navigation log unavailable